createdAt,value
2019-04-11T00:04:35.489Z,101740.48
2019-04-11T00:09:41.606Z,101748.91
2019-04-11T00:14:46.925Z,101748.75
2019-04-11T00:19:51.611Z,101754.28
2019-04-11T00:24:55.705Z,101758.34
2019-04-11T00:29:59.770Z,101758.22
2019-04-11T00:35:04.147Z,101756.00
2019-04-11T00:40:09.041Z,101764.09
2019-04-11T00:45:13.729Z,101770.91
2019-04-11T00:50:17.698Z,101772.28
2019-04-11T00:55:21.794Z,101767.59
2019-04-11T01:00:25.747Z,101776.15
2019-04-11T01:05:31.829Z,101774.66
2019-04-11T01:10:35.789Z,101779.33
2019-04-11T01:15:40.808Z,101775.52
2019-04-11T01:20:45.937Z,101770.98
2019-04-11T01:25:49.952Z,101781.51
2019-04-11T01:30:54.144Z,101783.88
2019-04-11T01:35:58.177Z,101783.42
2019-04-11T01:41:03.145Z,101781.80
2019-04-11T01:46:07.770Z,101780.89
2019-04-11T01:51:11.863Z,101787.87
2019-04-11T01:56:16.868Z,101787.77
2019-04-11T02:01:21.006Z,101794.11
2019-04-11T02:06:25.707Z,101790.89
2019-04-11T02:11:31.837Z,101803.53
2019-04-11T02:16:36.848Z,101804.86
2019-04-11T02:21:42.108Z,101805.80
2019-04-11T02:26:47.185Z,101810.41
2019-04-11T02:31:52.793Z,101818.18
2019-04-11T02:36:58.587Z,101815.70
2019-04-11T02:42:03.830Z,101815.43
2019-04-11T02:47:13.608Z,101821.95
2019-04-11T02:52:15.247Z,101829.86
2019-04-11T02:57:19.236Z,101832.78
2019-04-11T03:02:24.359Z,101833.94
2019-04-11T03:07:29.984Z,101834.02
2019-04-11T03:12:35.898Z,101838.38
2019-04-11T03:17:43.319Z,101844.02
2019-04-11T03:22:53.069Z,101842.69
2019-04-11T03:27:52.146Z,101845.80
2019-04-11T03:38:25.834Z,101850.23
2019-04-11T03:43:24.390Z,101856.72
2019-04-11T03:48:29.206Z,101854.89
2019-04-11T03:53:23.535Z,101854.54
2019-04-11T03:58:29.243Z,101862.47
2019-04-11T04:03:34.228Z,101867.75
2019-04-11T04:08:39.248Z,101867.84
2019-04-11T04:13:45.392Z,101868.61
2019-04-11T04:18:49.345Z,101874.45
2019-04-11T04:23:54.634Z,101884.45
2019-04-11T04:28:59.861Z,101883.48
2019-04-11T04:34:04.296Z,101889.50
2019-04-11T04:39:08.732Z,101896.10
2019-04-11T04:44:14.769Z,101902.52
2019-04-11T04:49:18.783Z,101905.75
2019-04-11T04:54:24.128Z,101912.22
2019-04-11T04:59:30.066Z,101917.63
2019-04-11T05:04:35.926Z,101921.95
2019-04-11T05:09:40.544Z,101927.16
2019-04-11T05:14:45.594Z,101927.83
2019-04-11T05:19:50.926Z,101933.81
2019-04-11T05:24:56.033Z,101931.98
2019-04-11T05:30:05.061Z,101939.29
2019-04-11T05:35:09.589Z,101937.26
2019-04-11T05:40:14.852Z,101938.00
2019-04-11T05:45:22.578Z,101933.70
2019-04-11T05:50:26.370Z,101942.63
2019-04-11T05:55:30.719Z,101946.45
2019-04-11T06:00:34.781Z,101945.51
2019-04-11T06:05:39.214Z,101950.67
2019-04-11T06:10:45.132Z,101946.78
2019-04-11T06:15:51.372Z,101946.95
2019-04-11T06:20:55.752Z,101956.83
2019-04-11T06:26:00.864Z,101966.77
2019-04-11T06:31:09.676Z,101973.35
2019-04-11T06:36:13.925Z,101984.66
2019-04-11T06:41:18.749Z,101991.87
2019-04-11T06:46:22.909Z,101988.70
2019-04-11T06:51:46.950Z,101994.94
2019-04-11T06:56:53.808Z,101996.48
2019-04-11T07:02:08.046Z,102001.15
2019-04-11T07:07:09.977Z,102001.02
2019-04-11T07:12:15.610Z,101998.52
2019-04-11T07:17:20.962Z,101998.95
2019-04-11T07:22:25.224Z,102004.65
2019-04-11T07:27:29.156Z,101998.55
2019-04-11T07:32:34.239Z,102006.64
2019-04-11T07:37:38.883Z,102008.69
2019-04-11T07:42:43.513Z,102007.27
2019-04-11T07:47:48.309Z,102016.25
2019-04-11T07:52:52.348Z,102010.68
2019-04-11T07:57:56.736Z,102017.30
2019-04-11T08:03:01.887Z,102020.91
2019-04-11T08:08:09.445Z,102019.06
2019-04-11T08:13:14.428Z,102014.18
2019-04-11T08:18:20.805Z,102012.17
2019-04-11T08:23:24.878Z,102019.39
2019-04-11T08:28:30.910Z,102011.09
2019-04-11T08:33:35.218Z,102023.30
2019-04-11T08:38:40.391Z,102017.45
2019-04-11T08:43:45.548Z,102016.94
2019-04-11T08:48:51.239Z,102021.94
2019-04-11T08:53:55.373Z,102018.05
2019-04-11T08:59:15.920Z,102030.83
2019-04-11T09:04:20.173Z,102024.07
2019-04-11T09:09:24.618Z,102020.12
2019-04-11T09:14:30.518Z,102023.67
2019-04-11T09:19:34.886Z,102017.84
2019-04-11T09:24:38.920Z,102020.08
2019-04-11T09:29:43.527Z,102017.73
2019-04-11T09:34:48.288Z,102022.95
2019-04-11T09:39:53.156Z,102028.64
2019-04-11T09:44:57.422Z,102019.35
2019-04-11T09:50:02.379Z,102026.14
2019-04-11T09:55:08.589Z,102019.64
2019-04-11T10:00:12.794Z,102010.21
2019-04-11T10:05:18.121Z,102020.36
2019-04-11T10:10:22.742Z,102022.67
2019-04-11T10:15:27.200Z,102015.09
2019-04-11T10:20:32.817Z,102027.64
2019-04-11T10:25:37.257Z,102021.02
2019-04-11T10:30:41.996Z,102006.55
2019-04-11T10:35:46.246Z,102021.09
2019-04-11T10:40:50.777Z,102011.22
2019-04-11T10:45:55.309Z,102014.47
2019-04-11T10:51:00.306Z,102023.37
2019-04-11T10:56:04.430Z,102005.86
2019-04-11T11:01:09.450Z,102007.81
2019-04-11T11:06:15.568Z,102007.61
2019-04-11T11:11:20.552Z,102010.47
2019-04-11T11:16:27.526Z,102010.26
2019-04-11T11:21:33.818Z,102026.55
2019-04-11T11:26:36.212Z,102027.41
2019-04-11T11:31:40.879Z,102030.31
2019-04-11T11:36:45.750Z,102037.17
2019-04-11T11:41:50.077Z,102039.55
2019-04-11T11:46:54.487Z,102039.98
2019-04-11T11:52:00.448Z,102034.31
2019-04-11T11:57:05.060Z,102034.84
2019-04-11T12:02:09.105Z,102043.22
2019-04-11T12:07:13.198Z,102045.62
2019-04-11T12:12:17.711Z,102040.06
2019-04-11T12:17:22.716Z,102051.68
2019-04-11T12:22:26.791Z,102040.66
2019-04-11T12:27:31.183Z,102054.35
2019-04-11T12:32:35.231Z,102040.06
2019-04-11T12:37:39.425Z,102043.45
2019-04-11T12:42:44.590Z,102043.59
2019-04-11T12:47:48.799Z,102050.21
2019-04-11T12:52:52.929Z,102042.48
2019-04-11T12:57:57.002Z,102044.27
2019-04-11T13:03:02.247Z,102051.20
2019-04-11T13:08:07.389Z,102044.55
2019-04-11T13:13:13.561Z,102044.63
2019-04-11T13:18:18.153Z,102039.52
2019-04-11T13:23:22.300Z,102046.43
2019-04-11T13:28:26.687Z,102044.29
2019-04-11T13:33:31.152Z,102044.80
2019-04-11T13:38:35.716Z,102042.52
2019-04-11T13:43:40.124Z,102041.65
2019-04-11T13:48:44.909Z,102030.16
2019-04-11T13:53:49.816Z,102037.84
2019-04-11T13:58:54.101Z,102026.53
2019-04-11T14:03:58.633Z,102034.39
2019-04-11T14:09:04.295Z,102038.81
2019-04-11T14:14:08.310Z,102031.59
2019-04-11T14:19:13.305Z,102029.81
2019-04-11T14:24:18.032Z,102034.86
2019-04-11T14:29:22.577Z,102030.73
2019-04-11T14:34:29.271Z,102033.73
2019-04-11T14:39:33.455Z,102038.25
2019-04-11T14:44:37.483Z,102031.98
2019-04-11T14:49:43.252Z,102031.56
2019-04-11T14:54:49.195Z,102031.97
2019-04-11T14:59:54.048Z,102037.47
2019-04-11T15:04:58.983Z,102034.95
2019-04-11T15:10:02.999Z,102028.61
2019-04-11T15:15:07.316Z,102022.09
2019-04-11T15:20:11.419Z,102022.97
2019-04-11T15:25:15.499Z,102024.06
2019-04-11T15:30:19.527Z,102030.23
2019-04-11T15:35:23.668Z,102027.91
2019-04-11T15:40:27.861Z,102040.43
2019-04-11T15:45:31.859Z,102037.00
2019-04-11T15:50:35.871Z,102041.89
2019-04-11T15:55:39.909Z,102039.09
2019-04-11T16:00:44.918Z,102044.26
2019-04-11T16:05:52.707Z,102039.52
2019-04-11T16:10:58.956Z,102048.97
2019-04-11T16:16:07.048Z,102043.50
2019-04-11T16:21:18.121Z,102049.83
2019-04-11T16:26:14.753Z,102045.27
2019-04-11T16:31:18.810Z,102052.48
2019-04-11T16:36:27.025Z,102046.92
2019-04-11T16:41:28.639Z,102048.50
2019-04-11T16:46:32.697Z,102047.80
2019-04-11T16:51:36.766Z,102052.01
2019-04-11T16:56:41.703Z,102057.54
2019-04-11T17:01:46.639Z,102055.92
2019-04-11T17:06:50.620Z,102056.39
2019-04-11T17:11:56.790Z,102055.84
2019-04-11T17:17:01.533Z,102058.26
2019-04-11T17:22:08.059Z,102068.23
2019-04-11T17:27:11.606Z,102067.48
2019-04-11T17:32:15.686Z,102069.97
2019-04-11T17:37:19.808Z,102072.66
2019-04-11T17:42:24.214Z,102084.70
2019-04-11T17:47:28.370Z,102088.04
2019-04-11T17:52:32.614Z,102100.36
2019-04-11T17:57:36.875Z,102098.98
2019-04-11T18:02:42.051Z,102099.02
2019-04-11T18:07:47.565Z,102102.91
2019-04-11T18:12:55.790Z,102117.20
2019-04-11T18:17:58.461Z,102123.47
2019-04-11T18:23:02.799Z,102133.69
2019-04-11T18:28:08.160Z,102144.41
2019-04-11T18:33:12.446Z,102153.78
2019-04-11T18:38:16.825Z,102159.17
2019-04-11T18:43:21.150Z,102161.93
2019-04-11T18:48:25.503Z,102166.28
2019-04-11T18:53:29.742Z,102163.05
2019-04-11T18:58:34.629Z,102167.23
2019-04-11T19:03:41.372Z,102176.05
2019-04-11T19:08:45.954Z,102170.74
2019-04-11T19:13:50.803Z,102172.23
2019-04-11T19:18:55.414Z,102174.50
2019-04-11T19:23:59.769Z,102166.28
2019-04-11T19:29:06.213Z,102167.12
2019-04-11T19:34:10.405Z,102171.56
2019-04-11T19:39:15.256Z,102178.77
2019-04-11T19:44:23.359Z,102184.16
2019-04-11T19:49:29.581Z,102178.75
2019-04-11T19:54:34.582Z,102182.91
2019-04-11T19:59:40.209Z,102174.77
2019-04-11T20:04:47.388Z,102172.62
2019-04-11T20:09:54.603Z,102169.20
2019-04-11T20:15:04.658Z,102172.70
2019-04-11T20:20:09.172Z,102174.50
2019-04-11T20:25:16.288Z,102181.01
2019-04-11T20:30:20.528Z,102175.52
2019-04-11T20:35:29.080Z,102183.73
2019-04-11T20:40:33.215Z,102188.10
2019-04-11T20:45:37.412Z,102186.66
2019-04-11T20:50:43.632Z,102180.90
2019-04-11T20:55:48.001Z,102186.86
2019-04-11T21:00:55.714Z,102188.92
2019-04-11T21:05:58.998Z,102190.52
2019-04-11T21:11:04.675Z,102192.34
2019-04-11T21:16:09.310Z,102195.93
2019-04-11T21:21:13.441Z,102191.84
2019-04-11T21:26:17.690Z,102190.52
2019-04-11T21:31:21.821Z,102190.70
2019-04-11T21:36:27.022Z,102188.69
2019-04-11T21:41:31.008Z,102189.47
2019-04-11T21:46:37.283Z,102186.04
2019-04-11T21:51:42.317Z,102182.99
2019-04-11T21:56:49.256Z,102188.87
2019-04-11T22:01:54.160Z,102181.94
2019-04-11T22:07:00.925Z,102188.17
2019-04-11T22:12:07.717Z,102187.42
2019-04-11T22:17:10.254Z,102186.56
2019-04-11T22:22:14.658Z,102182.94
2019-04-11T22:27:21.990Z,102191.73
2019-04-11T22:32:25.863Z,102187.28
2019-04-11T22:37:30.683Z,102185.57
2019-04-11T22:42:34.948Z,102187.91
2019-04-11T22:47:39.034Z,102184.41
2019-04-11T22:52:43.767Z,102181.76
2019-04-11T22:57:47.874Z,102186.77
2019-04-11T23:02:51.922Z,102184.67
2019-04-11T23:07:56.320Z,102183.72
2019-04-11T23:13:00.306Z,102190.02
2019-04-11T23:18:04.330Z,102187.84
2019-04-11T23:23:08.381Z,102187.48
2019-04-11T23:28:15.611Z,102184.83
2019-04-11T23:33:18.927Z,102184.05
2019-04-11T23:38:24.576Z,102177.83
2019-04-11T23:43:28.583Z,102184.52
2019-04-11T23:48:32.590Z,102190.27
2019-04-11T23:53:36.608Z,102192.33
2019-04-11T23:58:40.874Z,102180.92
